PAYAPAJN

Guest
Details From PAYA - Yakutat
To PAJN - Juneau Intl
Flight Number -
Tags Generated
Created
Modified
Stats Distance 172 nm / 318 km
Max Altitude 0 ft / 0 m
Waypoints 2
Social Downloads 3
Likes 0
Share VATSIM

Download

Looking for another format? Having issues loading an existing format? Contact us
Advertisement - Login to hide

Notes

Generated

Route

PAYA PAJN

ID Type Via Altitude Latitude Longitude Leg Dist Tot Dist Heading (true) Name
O PAYA APT - 0 ft / 0 m 59.49627˚ -139.68486˚ - 0 nm - -
O PAJN APT - 0 ft / 0 m 58.35793˚ -134.59756˚ 171 nm 171 nm 111° / 116° -

Altitude Profile

Advertisement - Login to hide

Weather


0- 5 10 15 20 25 30 35+ Temperature / ° C

Clouds and Precipitation
Forecast for 2018-05-28 00:00 UTC. Updated an hour ago

Ground ~20,000 ft ~40,000 ft Winds

PAYA

Details ICAO PAYA (YAK)
Name YAKUTAT
Region USA (Alaska)
Timezone America/Yakutat (UTC-8.0)
Stats Elevation 33 ft / 10 m (AMSL)
Location 59.503248° -139.661250°
Runways 2
Magnetic Variation 18.564° E

METAR

PAYA 272353Z AUTO 12012G18KT 10SM SCT026 BKN035 BKN045 11/06 A2979 RMK AO2 PK WND 13026/2316 SLP089 60024 T01060056 10106 20072 51008 TSNO

Decode

TAF

PAYA 272330Z 2800/2824 11010KT P6SM VCSH SCT025 BKN035 OVC100 TEMPO 2800/2802 12015G25KT -SHRA BKN025 FM280500 09004KT P6SM SCT040 BKN110 FM282100 24006KT P6SM BKN045 BKN100 AMD LTD TO CLD VIS AND WIND

Decode

Departure Runways

ID Width Length Bearing (true) Bearing (mag) Surface Threshold Offset Overrun Length
02 150 ft / 46 m 6,460 ft / 1,969 m 44.92° 26.36° Concrete 1,388 ft / 423 m 0 ft / 0 m
11 150 ft / 46 m 7,727 ft / 2,355 m 135.05° 116.49° Asphalt 0 ft / 0 m 0 ft / 0 m
20 150 ft / 46 m 6,460 ft / 1,969 m 224.95° 206.39° Concrete 0 ft / 0 m 0 ft / 0 m
29 150 ft / 46 m 7,727 ft / 2,355 m 315.08° 296.52° Asphalt 0 ft / 0 m 0 ft / 0 m

PAJN

Details ICAO PAJN (JNU)
Name Juneau Intl
Region USA (Alaska)
Timezone America/Juneau (UTC-8.0)
Stats Elevation 21 ft / 6 m (AMSL)
Location 58.354964° -134.576278°
Runways 1
Magnetic Variation 19.017° E

METAR

PAJN 272353Z 12010KT 10SM -RA SCT039 BKN060 OVC110 10/07 A2982

Decode

TAF

PAJN 272330Z 2800/2824 12014KT P6SM -SHRA FEW025 BKN045 OVC070 FM280800 09007KT P6SM VCSH BKN035 OVC090 FM281400 11011KT P6SM -SHRA OVC035

Decode

Destination Runways

ID Width Length Bearing (true) Bearing (mag) Surface Threshold Offset Overrun Length
08 150 ft / 46 m 8,430 ft / 2,570 m 104.87° 85.85° Asphalt 0 ft / 0 m 450 ft / 137 m
26 150 ft / 46 m 8,430 ft / 2,570 m 284.90° 265.88° Asphalt 0 ft / 0 m 225 ft / 69 m

Approach Navaids

Runway Type Ident Frequency Range Bearing (true) Bearing (mag) Slope Elevation
08 Localiser IJDL 109.90 MHz 18 nm / 33 km 84.92° 65.91° - 21 ft / 6 m (AMSL)
08 DME IJDL 109.90 MHz 18 nm / 33 km - - - 175 ft / 53 m (AMSL)

Popular Alternatives